Surfer 221 — FMLS — position and weather

sailwx.info

Track history (hours):
 
Tides and Currents Weather Stations Pressure Air Temp Water Temp Dewpoint Dewpoint Depression Visibility Wind Speed Wind Dir Waves Ship Positions

Surfer 221

Last reported at 2017-Oct-06 11:06 UTC. Time now 2017-Nov-21 04:13 UTC.
Position S 05°13' E 011°35'.
Warning: this ship's position is 45 days out of date.

MMSI: 635014300.

Date/timePositionNaut miles runAvg speedWind from/ knotsBaromVisibWave heightAir tempDewpointWater temp
2017-Oct-06 11:06S 05°13' E 011°35'420.6
2017-Oct-06 10:55S 05°16' E 011°34'2 4.8
2017-Oct-06 10:25S 05°16' E 011°31'819.7
2017-Oct-06 10:01S 05°14' E 011°24'611.8
2017-Oct-06 09:30S 05°13' E 011°18'1 1.8
2017-Oct-06 09:00S 05°12' E 011°18'  
2017-Sep-29 14:48S 05°08' E 011°30'819.2
2017-Sep-29 14:22S 05°14' E 011°25'3 7.6
2017-Sep-29 13:56S 05°17' E 011°23'2 3.8
2017-Sep-29 13:27S 05°19' E 011°23'0 0.0
2017-Sep-29 12:59S 05°19' E 011°23'0 0.0
2017-Sep-29 12:30S 05°19' E 011°23'0 0.0
2017-Sep-29 12:00S 05°19' E 011°23'0 0.1
2017-Sep-29 11:29S 05°19' E 011°23'0 0.1
2017-Sep-29 11:00S 05°19' E 011°23'0 0.1
2017-Sep-29 10:30S 05°19' E 011°23'2 3.4
2017-Sep-29 10:00S 05°17' E 011°23'0 0.3
2017-Sep-29 09:29S 05°17' E 011°23'11 0.2
2017-Sep-27 10:14S 05°16' E 011°34'0 0.0
2017-Sep-27 09:59S 05°16' E 011°34'  
Track history (hours):
 
Tides and Currents Weather Stations Pressure Air Temp Water Temp Dewpoint Dewpoint Depression Visibility Wind Speed Wind Dir Waves Ship Positions

Surfer 221

Last reported at 2017-Oct-06 11:06 UTC. Time now 2017-Nov-21 04:13 UTC.
Position S 05°13' E 011°35'.
Warning: this ship's position is 45 days out of date.

MMSI: 635014300.

Date/timePositionNaut miles runAvg speedWind from/ knotsBaromVisibWave heightAir tempDewpointWater temp
2017-Oct-06 11:06S 05°13' E 011°35'420.6
2017-Oct-06 10:55S 05°16' E 011°34'2 4.8
2017-Oct-06 10:25S 05°16' E 011°31'819.7
2017-Oct-06 10:01S 05°14' E 011°24'611.8
2017-Oct-06 09:30S 05°13' E 011°18'1 1.8
2017-Oct-06 09:00S 05°12' E 011°18'  
2017-Sep-29 14:48S 05°08' E 011°30'819.2
2017-Sep-29 14:22S 05°14' E 011°25'3 7.6
2017-Sep-29 13:56S 05°17' E 011°23'2 3.8
2017-Sep-29 13:27S 05°19' E 011°23'0 0.0
2017-Sep-29 12:59S 05°19' E 011°23'0 0.0
2017-Sep-29 12:30S 05°19' E 011°23'0 0.0
2017-Sep-29 12:00S 05°19' E 011°23'0 0.1
2017-Sep-29 11:29S 05°19' E 011°23'0 0.1
2017-Sep-29 11:00S 05°19' E 011°23'0 0.1
2017-Sep-29 10:30S 05°19' E 011°23'2 3.4
2017-Sep-29 10:00S 05°17' E 011°23'0 0.3
2017-Sep-29 09:29S 05°17' E 011°23'11 0.2
2017-Sep-27 10:14S 05°16' E 011°34'0 0.0
2017-Sep-27 09:59S 05°16' E 011°34'  

Dump ship's entire track history